Time;durP1;ratioP1;P1;durP2;ratioP2;P2;SDS_P1;SDS_P2;PMS_P1;PMS_P2;Temp;Humidity;BMP_temperature;BMP_pressure;BME280_temperature;BME280_humidity;BME280_pressure;Samples;Min_cycle;Max_cycle;Signal;HPM_P1;HPM_P2
2022/11/15 00:00:54;;;;;;;25.38;17.90;;;;;;;9.52;82.25;100569.38;3615090;39;20059;-62
2022/11/15 00:03:27;;;;;;;26.30;19.05;;;;;;;9.56;82.62;100569.19;3613664;39;20046;-63
2022/11/15 00:05:53;;;;;;;28.40;18.63;;;;;;;9.35;82.24;100520.38;3620744;39;20163;-62
2022/11/15 00:08:20;;;;;;;28.48;20.50;;;;;;;9.65;83.31;100568.63;3618738;39;20057;-64
2022/11/15 00:11:00;;;;;;;25.38;18.13;;;;;;;9.70;82.81;100561.97;3618429;39;20049;-63
2022/11/15 00:13:27;;;;;;;26.65;18.08;;;;;;;9.70;82.71;100555.75;3615861;39;20940;-62
2022/11/15 00:15:56;;;;;;;24.02;18.42;;;;;;;9.85;82.59;100570.06;3614453;39;20071;-63
2022/11/15 00:18:21;;;;;;;24.52;16.98;;;;;;;9.91;82.87;100564.28;3617747;39;20346;-63
2022/11/15 00:20:50;;;;;;;25.38;18.05;;;;;;;9.90;82.29;100549.16;3609835;39;20050;-62
2022/11/15 00:23:16;;;;;;;24.58;17.55;;;;;;;9.96;81.96;100546.94;3613113;39;20051;-65
2022/11/15 00:25:41;;;;;;;23.10;16.38;;;;;;;10.08;81.82;100561.38;3614471;39;20067;-63
2022/11/15 00:28:07;;;;;;;23.75;17.48;;;;;;;10.05;82.29;100545.47;3615881;39;20054;-63
2022/11/15 00:30:34;;;;;;;19.73;15.80;;;;;;;10.20;81.99;100570.50;3618009;39;20067;-63
2022/11/15 00:33:05;;;;;;;21.77;16.98;;;;;;;10.16;81.71;100547.47;3620765;39;20046;-63
2022/11/15 00:35:35;;;;;;;22.70;16.23;;;;;;;10.29;81.94;100559.19;3620830;39;20068;-64
2022/11/15 00:38:02;;;;;;;20.55;15.57;;;;;;;10.29;80.93;100553.81;3617725;39;20344;-64
2022/11/15 00:40:28;;;;;;;22.95;16.70;;;;;;;10.36;81.22;100554.28;3615264;39;20062;-65
2022/11/15 00:42:53;;;;;;;19.75;15.73;;;;;;;10.42;81.27;100560.09;3617165;39;20059;-64
2022/11/15 00:45:19;;;;;;;22.45;16.08;;;;;;;10.40;81.46;100539.66;3619863;39;20056;-65
2022/11/15 00:47:46;;;;;;;21.48;15.50;;;;;;;10.51;80.73;100552.41;3621197;39;20066;-64
2022/11/15 00:50:13;;;;;;;21.67;15.70;;;;;;;10.54;81.22;100552.22;3619067;39;20058;-64
2022/11/15 00:52:38;;;;;;;20.95;15.65;;;;;;;10.57;81.13;100550.19;3619289;39;20086;-64
2022/11/15 00:55:05;;;;;;;20.75;16.00;;;;;;;10.61;81.25;100549.00;3617973;39;20063;-64
2022/11/15 00:57:30;;;;;;;19.92;15.65;;;;;;;10.53;81.22;100529.84;3617329;39;20344;-65
2022/11/15 00:59:56;;;;;;;20.75;15.75;;;;;;;10.65;81.13;100550.50;3616160;39;20050;-64
2022/11/15 01:02:21;;;;;;;20.30;15.93;;;;;;;10.64;81.04;100537.19;3616684;39;20297;-64
2022/11/15 01:04:47;;;;;;;21.48;15.27;;;;;;;10.71;82.04;100548.38;3618789;39;20047;-63
2022/11/15 01:07:13;;;;;;;21.58;15.30;;;;;;;10.72;82.22;100544.72;3622397;39;20054;-63
2022/11/15 01:09:38;;;;;;;22.55;15.38;;;;;;;10.74;81.94;100543.66;3625020;39;20301;-63
2022/11/15 01:12:04;;;;;;;21.42;16.00;;;;;;;10.72;82.36;100533.97;3621724;39;20059;-63
2022/11/15 01:14:30;;;;;;;22.30;15.07;;;;;;;10.80;82.53;100537.03;3619447;39;20058;-63
2022/11/15 01:16:56;;;;;;;23.58;15.40;;;;;;;10.82;82.09;100538.66;3621922;39;20054;-63
2022/11/15 01:19:21;;;;;;;23.05;15.80;;;;;;;10.84;82.19;100534.00;3623165;39;20043;-63
2022/11/15 01:21:51;;;;;;;21.25;15.48;;;;;;;10.88;82.09;100540.06;3620675;39;20054;-63
2022/11/15 01:24:16;;;;;;;22.65;15.82;;;;;;;10.89;82.86;100531.03;3616037;39;20297;-63
2022/11/15 01:26:42;;;;;;;20.63;15.57;;;;;;;10.83;82.98;100509.94;3618039;39;20274;-64
2022/11/15 01:29:07;;;;;;;20.67;16.10;;;;;;;10.92;82.70;100518.22;3619415;39;20062;-63
2022/11/15 01:31:33;;;;;;;21.35;15.45;;;;;;;10.77;82.82;100497.75;3617272;39;20305;-63
2022/11/15 01:33:58;;;;;;;20.58;15.57;;;;;;;10.93;83.15;100506.50;3620327;39;20039;-63
2022/11/15 01:36:24;;;;;;;23.02;15.88;;;;;;;10.87;83.34;100506.91;3616528;39;20074;-64
2022/11/15 01:38:56;;;;;;;19.13;14.98;;;;;;;10.96;83.38;100518.88;3616446;39;20048;-63
2022/11/15 01:41:26;;;;;;;20.50;15.68;;;;;;;10.99;84.07;100523.19;3618465;39;20330;-63
2022/11/15 01:43:56;;;;;;;21.75;15.75;;;;;;;11.03;83.90;100522.00;3617224;39;20058;-63
2022/11/15 01:46:33;;;;;;;23.88;16.63;;;;;;;11.05;84.42;100512.88;3619146;39;20062;-63
2022/11/15 01:49:10;;;;;;;20.80;16.10;;;;;;;11.09;84.30;100511.69;3616387;39;20094;-63
2022/11/15 01:51:37;;;;;;;19.48;15.32;;;;;;;10.98;84.63;100489.19;3618593;39;20094;-63
2022/11/15 01:54:18;;;;;;;20.13;15.82;;;;;;;11.19;84.62;100516.44;3616953;39;20059;-64
2022/11/15 01:56:54;;;;;;;23.38;15.95;;;;;;;11.26;84.34;100518.59;3607410;39;20055;-64
2022/11/15 01:59:21;;;;;;;20.05;16.30;;;;;;;11.26;85.14;100506.94;3619265;39;20090;-63
2022/11/15 02:01:47;;;;;;;21.20;15.90;;;;;;;10.41;84.47;100354.19;3616379;39;20052;-65
2022/11/15 02:04:21;;;;;;;20.20;15.80;;;;;;;11.39;84.33;100513.22;3616157;39;20091;-63
2022/11/15 02:06:48;;;;;;;21.52;16.70;;;;;;;11.35;84.84;100490.16;3620865;39;20061;-64
2022/11/15 02:09:15;;;;;;;19.92;16.15;;;;;;;11.47;84.89;100507.28;3618352;39;20046;-63
2022/11/15 02:11:43;;;;;;;20.90;17.02;;;;;;;11.52;84.57;100505.16;3615853;39;20385;-64
2022/11/15 02:14:14;;;;;;;23.17;15.95;;;;;;;11.50;84.75;100504.38;3617874;39;20123;-64
2022/11/15 02:17:11;;;;;;;19.02;15.77;;;;;;;11.57;84.71;100500.28;3616276;39;20053;-64
2022/11/15 02:20:27;;;;;;;21.05;16.55;;;;;;;11.59;84.98;100503.72;3616708;39;20050;-63
2022/11/15 02:23:43;;;;;;;22.55;17.23;;;;;;;11.54;84.81;100484.34;3615316;39;20062;-63
2022/11/15 02:26:34;;;;;;;21.42;16.30;;;;;;;11.67;85.03;100506.75;3618646;39;20286;-62
2022/11/15 02:29:44;;;;;;;22.25;16.88;;;;;;;11.70;84.90;100498.41;3619284;39;20059;-63
2022/11/15 02:32:47;;;;;;;21.17;16.83;;;;;;;11.73;84.94;100490.13;3615528;39;20163;-62
2022/11/15 02:35:43;;;;;;;24.10;16.77;;;;;;;11.75;85.04;100495.41;3615349;39;20046;-63
2022/11/15 02:38:51;;;;;;;23.70;18.10;;;;;;;11.78;85.85;100487.97;3600519;39;20271;-63
2022/11/15 02:41:39;;;;;;;23.70;17.63;;;;;;;11.82;85.65;100489.47;3615431;39;20062;-63
2022/11/15 02:44:23;;;;;;;21.90;17.35;;;;;;;11.82;85.50;100486.78;3613856;39;20393;-63
2022/11/15 02:47:13;;;;;;;20.95;17.95;;;;;;;11.86;85.50;100484.75;3616519;39;20067;-63
2022/11/15 02:49:54;;;;;;;24.02;17.30;;;;;;;11.90;85.62;100485.41;3616720;39;20408;-64
2022/11/15 02:52:23;;;;;;;21.17;17.15;;;;;;;11.92;85.36;100483.44;3616974;39;20300;-64
2022/11/15 02:55:01;;;;;;;26.63;18.38;;;;;;;11.90;85.31;100477.31;3613997;39;20376;-64
2022/11/15 02:57:38;;;;;;;24.05;18.52;;;;;;;11.97;85.09;100479.44;3620791;39;20158;-64
2022/11/15 03:00:12;;;;;;;24.08;17.67;;;;;;;11.99;85.00;100473.97;3618129;39;20054;-64
2022/11/15 03:03:40;;;;;;;21.25;17.77;;;;;;;11.99;84.99;100463.19;3620953;39;20052;-64
2022/11/15 03:06:19;;;;;;;22.83;17.13;;;;;;;12.00;85.44;100473.84;3603029;39;20055;-64
2022/11/15 03:09:02;;;;;;;24.42;17.50;;;;;;;11.95;84.90;100440.13;3621635;39;20412;-64
2022/11/15 03:11:37;;;;;;;23.40;17.48;;;;;;;12.03;85.45;100453.91;3619593;39;20049;-64
2022/11/15 03:14:51;;;;;;;24.15;18.15;;;;;;;12.02;85.17;100452.16;3618031;39;20081;-64
2022/11/15 03:17:33;;;;;;;21.15;16.67;;;;;;;12.03;85.29;100459.28;3615176;39;20055;-64
2022/11/15 03:20:06;;;;;;;21.30;17.45;;;;;;;12.05;85.30;100465.41;3619694;39;20062;-64
2022/11/15 03:22:42;;;;;;;21.38;17.23;;;;;;;12.09;85.53;100464.22;3620973;39;20053;-64
2022/11/15 03:25:15;;;;;;;26.42;17.83;;;;;;;12.12;85.23;100464.00;3621342;39;20061;-65
2022/11/15 03:27:50;;;;;;;20.88;17.58;;;;;;;12.05;85.55;100442.03;3619620;39;20073;-64
2022/11/15 03:30:17;;;;;;;22.98;17.15;;;;;;;12.01;85.29;100434.28;3618197;39;20042;-64
2022/11/15 03:32:58;;;;;;;21.13;17.27;;;;;;;12.18;85.09;100458.16;3620119;39;20039;-64
2022/11/15 03:35:30;;;;;;;22.38;16.80;;;;;;;11.99;85.09;100433.56;3618372;39;20112;-64
2022/11/15 03:38:05;;;;;;;24.15;17.48;;;;;;;12.21;85.15;100465.13;3621659;39;20078;-64
2022/11/15 03:40:40;;;;;;;24.42;17.40;;;;;;;12.12;85.11;100442.44;3622035;39;20046;-65
2022/11/15 03:43:47;;;;;;;24.25;18.90;;;;;;;12.23;85.58;100460.50;3618731;39;20065;-65
2022/11/15 03:46:46;;;;;;;22.73;18.00;;;;;;;12.19;85.36;100462.56;3620078;39;20042;-64
2022/11/15 03:49:22;;;;;;;26.27;18.77;;;;;;;12.23;85.12;100464.03;3618331;39;20052;-64
2022/11/15 03:51:48;;;;;;;25.30;18.38;;;;;;;12.24;85.48;100467.59;3619339;39;20089;-64
2022/11/15 03:54:14;;;;;;;26.15;19.23;;;;;;;12.16;85.49;100449.31;3620114;39;20054;-64
2022/11/15 03:56:39;;;;;;;28.40;20.05;;;;;;;12.20;85.85;100458.88;3619142;39;20053;-64
2022/11/15 03:59:05;;;;;;;29.73;20.52;;;;;;;12.27;85.85;100461.97;3620870;39;20051;-64
2022/11/15 04:01:30;;;;;;;30.25;20.08;;;;;;;12.27;85.66;100468.25;3620592;39;20046;-64
2022/11/15 04:03:56;;;;;;;27.50;20.42;;;;;;;12.29;85.67;100457.34;3617195;39;20067;-64
2022/11/15 04:06:21;;;;;;;24.73;19.80;;;;;;;12.30;85.67;100459.94;3623829;39;20057;-64
2022/11/15 04:08:47;;;;;;;28.55;20.60;;;;;;;12.30;85.83;100456.34;3623482;39;20046;-64
2022/11/15 04:11:12;;;;;;;26.75;20.60;;;;;;;12.28;85.76;100450.25;3621374;39;20062;-64
2022/11/15 04:13:38;;;;;;;27.13;20.38;;;;;;;12.31;86.01;100458.09;3620923;39;20054;-65
2022/11/15 04:16:04;;;;;;;24.85;20.17;;;;;;;12.30;85.53;100457.25;3620524;39;20047;-65
2022/11/15 04:18:29;;;;;;;28.50;20.90;;;;;;;12.30;86.25;100451.84;3620549;39;20050;-64
2022/11/15 04:26:23;;;;;;;29.75;20.38;;;;;;;12.27;86.54;100453.88;3619328;39;20003;-66
2022/11/15 04:31:34;;;;;;;31.00;21.02;;;;;;;12.23;86.23;100442.47;3618756;39;20114;-63
2022/11/15 04:33:59;;;;;;;28.13;20.50;;;;;;;12.29;86.15;100449.25;3620989;39;20288;-64
2022/11/15 04:39:10;;;;;;;26.30;18.55;;;;;;;12.28;85.98;100459.19;3620828;39;20115;-63
2022/11/15 04:41:35;;;;;;;27.10;18.77;;;;;;;12.28;85.80;100452.94;3619610;39;20058;-63
2022/11/15 04:44:01;;;;;;;27.55;19.20;;;;;;;12.27;86.19;100465.56;3616798;39;20047;-63
2022/11/15 04:46:27;;;;;;;26.60;19.70;;;;;;;12.23;85.78;100450.56;3613628;39;20054;-64
2022/11/15 04:48:54;;;;;;;24.90;19.02;;;;;;;12.28;86.13;100461.88;3619336;39;20090;-63
2022/11/15 04:51:20;;;;;;;25.73;19.08;;;;;;;12.28;85.98;100451.09;3620084;39;20050;-64
2022/11/15 04:53:46;;;;;;;29.27;19.02;;;;;;;12.28;86.20;100461.88;3619482;39;20312;-64
2022/11/15 04:56:12;;;;;;;24.67;18.95;;;;;;;12.29;86.20;100457.34;3617469;39;20058;-64
2022/11/15 04:58:37;;;;;;;24.58;19.65;;;;;;;12.28;86.19;100455.63;3621289;39;20058;-63
2022/11/15 05:01:14;;;;;;;27.80;19.83;;;;;;;12.27;86.48;100454.78;3620144;39;20339;-64
2022/11/15 05:06:25;;;;;;;24.45;19.30;;;;;;;12.27;86.32;100449.38;3618682;39;20045;-63
2022/11/15 05:08:51;;;;;;;26.42;18.58;;;;;;;12.23;86.18;100444.31;3617597;39;20154;-63
2022/11/15 05:11:17;;;;;;;24.23;18.98;;;;;;;12.29;86.19;100449.25;3618743;39;20058;-64
2022/11/15 05:13:43;;;;;;;25.38;19.15;;;;;;;12.30;86.22;100457.25;3619178;39;20055;-64
2022/11/15 05:16:08;;;;;;;25.83;18.85;;;;;;;12.30;86.46;100449.16;3622376;39;20270;-64
2022/11/15 05:18:34;;;;;;;23.30;18.05;;;;;;;12.31;86.51;100453.56;3617862;39;20050;-64
2022/11/15 05:21:05;;;;;;;23.42;18.27;;;;;;;12.31;85.97;100453.56;3616251;39;20062;-64
2022/11/15 05:23:31;;;;;;;24.30;19.27;;;;;;;12.29;86.61;100442.03;3619846;39;20043;-63
2022/11/15 05:26:05;;;;;;;23.75;18.80;;;;;;;12.33;86.57;100442.66;3615072;39;20069;-64
2022/11/15 05:28:31;;;;;;;;;;;;;;;12.31;86.47;100441.94;3616640;39;20055;-64
2022/11/15 05:31:09;;;;;;;26.90;20.92;;;;;;;12.27;86.87;100440.41;3621464;39;20003;-63
2022/11/15 05:33:38;;;;;;;27.30;21.33;;;;;;;12.17;87.00;100413.28;3618195;39;20098;-64
2022/11/15 05:36:20;;;;;;;24.33;18.15;;;;;;;12.18;86.66;100411.47;3620129;39;20083;-64
2022/11/15 05:38:48;;;;;;;24.92;18.35;;;;;;;12.32;87.09;100433.72;3616986;39;20061;-64
2022/11/15 05:41:20;;;;;;;21.92;18.13;;;;;;;12.32;86.41;100428.31;3621920;39;20062;-64
2022/11/15 05:43:49;;;;;;;24.65;18.95;;;;;;;12.29;86.98;100425.84;3618447;39;20053;-64
2022/11/15 05:46:17;;;;;;;25.70;18.50;;;;;;;12.31;86.93;100431.16;3617961;39;20069;-64
2022/11/15 05:48:50;;;;;;;27.92;19.40;;;;;;;12.29;86.66;100427.69;3621966;39;20278;-64
2022/11/15 05:51:21;;;;;;;23.58;18.80;;;;;;;12.27;86.83;100441.31;3618698;39;20338;-64
2022/11/15 05:53:48;;;;;;;25.27;18.65;;;;;;;12.26;86.62;100446.78;3620643;39;20054;-64
2022/11/15 05:56:15;;;;;;;25.05;18.15;;;;;;;12.27;87.14;100443.09;3619296;39;20050;-64
2022/11/15 05:58:42;;;;;;;22.83;18.65;;;;;;;12.27;87.09;100446.69;3625340;39;20042;-66
2022/11/15 06:01:09;;;;;;;24.75;19.25;;;;;;;12.29;87.14;100454.66;3617984;39;20179;-65
2022/11/15 06:03:34;;;;;;;25.75;19.98;;;;;;;12.30;87.38;100451.84;3618553;39;20306;-64
2022/11/15 06:06:01;;;;;;;22.42;17.88;;;;;;;12.27;87.34;100452.06;3620900;39;20091;-64
2022/11/15 06:08:27;;;;;;;28.83;18.60;;;;;;;12.32;87.16;100462.50;3622897;39;20049;-64
2022/11/15 06:10:52;;;;;;;24.38;19.50;;;;;;;12.30;87.32;100462.63;3619845;39;20405;-64
2022/11/15 06:13:18;;;;;;;27.02;19.55;;;;;;;12.29;87.39;100444.72;3621203;39;20099;-64
2022/11/15 06:15:44;;;;;;;25.08;18.88;;;;;;;12.35;87.44;100456.88;3620525;39;20297;-64
2022/11/15 06:18:09;;;;;;;25.48;19.45;;;;;;;12.34;87.39;100456.97;3616720;39;20054;-64
2022/11/15 06:20:35;;;;;;;24.73;19.08;;;;;;;12.36;86.89;100469.38;3613533;39;20053;-64
2022/11/15 06:23:04;;;;;;;24.10;19.75;;;;;;;12.36;87.24;100473.91;3621411;39;20057;-64
2022/11/15 06:25:30;;;;;;;28.85;20.10;;;;;;;12.31;87.12;100453.56;3622837;39;20038;-64
2022/11/15 06:27:58;;;;;;;24.77;19.25;;;;;;;12.37;87.28;100467.53;3622446;39;20059;-65
2022/11/15 06:30:26;;;;;;;28.13;19.15;;;;;;;12.36;87.06;100463.13;3620858;39;20105;-64
2022/11/15 06:32:59;;;;;;;22.88;19.05;;;;;;;12.37;87.12;100467.53;3621335;39;20412;-64
2022/11/15 06:35:24;;;;;;;23.67;18.60;;;;;;;12.33;86.46;100461.50;3614284;39;20378;-64
2022/11/15 06:37:50;;;;;;;22.80;18.23;;;;;;;12.35;86.79;100472.19;3616116;39;20047;-64
2022/11/15 06:40:15;;;;;;;22.15;17.20;;;;;;;12.24;85.82;100467.59;3623341;39;20261;-64
2022/11/15 06:42:41;;;;;;;21.48;16.50;;;;;;;12.27;86.11;100454.78;3620672;39;20047;-64
2022/11/15 06:45:07;;;;;;;22.33;16.10;;;;;;;12.29;85.55;100466.28;3619666;39;20274;-64
2022/11/15 06:47:33;;;;;;;20.15;15.32;;;;;;;12.31;85.36;100485.91;3619502;39;20086;-64
2022/11/15 06:49:59;;;;;;;20.92;15.52;;;;;;;12.30;85.09;100486.88;3616780;39;20085;-64
2022/11/15 06:52:24;;;;;;;23.13;15.32;;;;;;;12.28;84.99;100480.75;3617869;39;20309;-64
2022/11/15 06:54:50;;;;;;;21.02;15.15;;;;;;;12.27;84.94;100484.41;3617941;39;20062;-64
2022/11/15 06:57:15;;;;;;;20.85;15.35;;;;;;;12.26;84.89;100485.38;3621690;39;20046;-64
2022/11/15 06:59:41;;;;;;;21.73;14.80;;;;;;;12.27;84.80;100489.81;3619896;39;20070;-64
2022/11/15 07:02:13;;;;;;;22.60;14.57;;;;;;;12.26;84.70;100498.84;3620400;39;20277;-64
2022/11/15 07:04:38;;;;;;;21.75;14.57;;;;;;;12.25;84.51;100491.75;3620009;39;20042;-64
2022/11/15 07:07:04;;;;;;;18.52;14.63;;;;;;;12.23;84.84;100493.69;3620172;39;20041;-64
2022/11/15 07:09:29;;;;;;;21.30;14.57;;;;;;;12.23;84.81;100501.78;3621038;39;20300;-65
2022/11/15 07:11:55;;;;;;;23.45;14.38;;;;;;;12.21;84.28;100502.84;3617128;39;20065;-64
2022/11/15 07:14:20;;;;;;;20.05;14.38;;;;;;;12.20;84.38;100498.44;3612122;39;20057;-64
2022/11/15 07:16:46;;;;;;;17.48;13.10;;;;;;;12.20;84.17;100512.78;3617356;39;20116;-63
2022/11/15 07:19:12;;;;;;;23.02;15.07;;;;;;;12.20;84.70;100512.78;3620720;39;20043;-63
2022/11/15 07:21:37;;;;;;;23.23;14.02;;;;;;;12.20;84.88;100512.78;3620023;39;20057;-63
2022/11/15 07:24:03;;;;;;;19.65;13.75;;;;;;;12.19;84.52;100508.38;3619753;39;20050;-63
2022/11/15 07:26:29;;;;;;;17.50;13.27;;;;;;;12.18;84.82;100512.03;3623272;39;20046;-64
2022/11/15 07:28:55;;;;;;;21.65;14.70;;;;;;;12.21;84.83;100511.81;3617094;39;20062;-63
2022/11/15 07:31:20;;;;;;;20.30;14.98;;;;;;;12.22;84.82;100518.91;3613655;39;20054;-63
2022/11/15 07:33:46;;;;;;;18.70;14.48;;;;;;;12.13;84.30;100500.72;3619858;39;20062;-63
2022/11/15 07:36:11;;;;;;;20.10;14.13;;;;;;;12.21;84.66;100509.13;3619914;39;20053;-63
2022/11/15 07:38:37;;;;;;;23.10;14.75;;;;;;;12.18;84.62;100503.97;3619611;39;20050;-64
2022/11/15 07:41:06;;;;;;;19.13;14.05;;;;;;;12.19;84.52;100502.97;3619407;39;20086;-63
2022/11/15 07:43:33;;;;;;;17.58;14.38;;;;;;;12.18;84.71;100500.38;3620539;39;20097;-64
2022/11/15 07:46:09;;;;;;;18.92;14.10;;;;;;;12.17;84.65;100493.28;3617256;39;20058;-63
2022/11/15 07:48:35;;;;;;;18.45;13.88;;;;;;;11.88;84.81;100450.50;3617667;39;20051;-63
2022/11/15 07:51:02;;;;;;;21.40;14.52;;;;;;;12.10;84.82;100486.63;3615106;39;20053;-63
2022/11/15 07:53:27;;;;;;;18.48;13.35;;;;;;;12.13;84.85;100491.78;3613530;39;20047;-63
2022/11/15 07:55:53;;;;;;;17.77;13.75;;;;;;;12.13;84.19;100503.44;3616313;39;20058;-64
2022/11/15 07:58:19;;;;;;;17.98;13.57;;;;;;;12.13;84.55;100499.88;3621725;39;20057;-63
2022/11/15 08:00:45;;;;;;;22.52;13.88;;;;;;;12.13;84.11;100497.19;3618346;39;20126;-63
2022/11/15 08:03:14;;;;;;;20.65;13.90;;;;;;;12.15;84.48;100501.50;3619844;39;20058;-63
2022/11/15 08:05:42;;;;;;;20.23;13.70;;;;;;;12.19;84.18;100508.38;3617431;39;20320;-63
2022/11/15 08:08:10;;;;;;;19.30;12.77;;;;;;;12.15;83.92;100497.94;3620582;39;20127;-63
2022/11/15 08:10:37;;;;;;;19.60;12.70;;;;;;;12.21;84.25;100508.25;3616798;39;20057;-63
2022/11/15 08:13:13;;;;;;;17.58;12.60;;;;;;;12.22;83.82;100516.22;3616781;39;20127;-63
2022/11/15 08:15:39;;;;;;;27.17;20.38;;;;;;;12.22;83.63;100523.47;3612779;39;20086;-63
2022/11/15 08:18:10;;;;;;;19.58;12.23;;;;;;;12.19;83.12;100516.44;3615600;39;20081;-63
2022/11/15 08:20:36;;;;;;;13.32;10.75;;;;;;;12.11;83.09;100499.13;3619072;39;20104;-63
2022/11/15 08:23:05;;;;;;;14.60;11.18;;;;;;;12.16;83.28;100505.91;3618184;39;20091;-63
2022/11/15 08:25:33;;;;;;;17.20;10.75;;;;;;;12.17;82.98;100510.31;3620221;39;20092;-63
2022/11/15 08:28:04;;;;;;;17.00;10.35;;;;;;;12.19;82.83;100510.22;3619568;39;20055;-63
2022/11/15 08:30:34;;;;;;;12.10;10.00;;;;;;;12.21;82.58;100510.94;3617883;39;20389;-63
2022/11/15 08:32:59;;;;;;;10.82;9.30;;;;;;;12.17;82.59;100502.22;3620788;39;20103;-62
2022/11/15 08:35:25;;;;;;;11.75;9.00;;;;;;;12.20;82.66;100493.91;3617863;39;20055;-62
2022/11/15 08:37:53;;;;;;;11.05;8.75;;;;;;;12.20;82.28;100491.22;3618952;39;20111;-62
2022/11/15 08:40:19;;;;;;;14.27;8.23;;;;;;;12.22;81.91;100497.38;3619107;39;20053;-62
2022/11/15 08:42:48;;;;;;;11.68;8.05;;;;;;;12.24;81.68;100495.44;3611955;39;20058;-62
2022/11/15 08:45:15;;;;;;;11.60;8.07;;;;;;;12.20;81.75;100477.75;3620917;39;20050;-62
2022/11/15 08:47:40;;;;;;;9.68;7.35;;;;;;;12.29;81.76;100482.44;3618538;39;20063;-62
2022/11/15 08:50:07;;;;;;;11.30;7.07;;;;;;;12.34;81.25;100474.03;3619806;39;20055;-61
2022/11/15 08:52:33;;;;;;;7.63;6.57;;;;;;;12.37;81.54;100467.53;3619723;39;20132;-61
2022/11/15 08:54:59;;;;;;;8.15;6.20;;;;;;;12.43;80.79;100469.75;3623588;39;20070;-61
2022/11/15 08:57:24;;;;;;;10.30;6.80;;;;;;;12.46;80.57;100473.13;3625686;39;20293;-61
2022/11/15 08:59:50;;;;;;;8.13;6.00;;;;;;;12.54;80.20;100473.38;3623851;39;20070;-61
2022/11/15 09:02:16;;;;;;;8.48;5.80;;;;;;;12.52;80.09;100452.91;3624743;39;20074;-61
2022/11/15 09:04:43;;;;;;;8.80;5.82;;;;;;;12.67;79.83;100465.22;3623268;39;20119;-61
2022/11/15 09:07:11;;;;;;;9.13;5.57;;;;;;;12.75;78.96;100453.88;3622367;39;20044;-61
2022/11/15 09:09:37;;;;;;;4.95;4.30;;;;;;;12.79;78.44;100458.03;3620373;39;20047;-61
2022/11/15 09:12:05;;;;;;;6.50;4.22;;;;;;;12.80;77.30;100448.09;3617411;39;20039;-61
2022/11/15 09:14:31;;;;;;;7.13;4.30;;;;;;;12.85;76.84;100451.31;3620344;39;20054;-61
2022/11/15 09:16:58;;;;;;;7.60;4.22;;;;;;;12.91;76.99;100445.44;3618341;39;20063;-61
2022/11/15 09:19:23;;;;;;;6.03;3.92;;;;;;;12.92;76.11;100430.97;3617171;39;20282;-61
2022/11/15 09:21:49;;;;;;;3.75;3.10;;;;;;;13.01;74.99;100441.91;3618803;39;20063;-62
2022/11/15 09:24:15;;;;;;;6.20;3.20;;;;;;;13.11;74.63;100433.09;3619321;39;20069;-61
2022/11/15 09:26:41;;;;;;;4.78;3.42;;;;;;;13.15;74.14;100443.50;3617850;39;20046;-61
2022/11/15 09:29:06;;;;;;;5.47;2.88;;;;;;;13.17;73.80;100441.56;3619036;39;20055;-61
2022/11/15 09:31:32;;;;;;;3.72;2.65;;;;;;;13.19;72.89;100439.59;3621014;39;20122;-62
2022/11/15 09:33:58;;;;;;;3.00;2.63;;;;;;;13.05;72.85;100430.88;3620345;39;20403;-61
2022/11/15 09:36:24;;;;;;;4.07;2.72;;;;;;;13.05;72.34;100434.41;3619574;39;20053;-61
2022/11/15 09:38:50;;;;;;;11.52;6.57;;;;;;;13.09;72.64;100438.59;3617403;39;20332;-62
2022/11/15 09:41:15;;;;;;;5.00;3.70;;;;;;;13.09;72.19;100429.63;3621100;39;20507;-62
2022/11/15 09:43:48;;;;;;;3.97;2.35;;;;;;;13.13;72.30;100428.41;3622101;39;20055;-63
2022/11/15 09:46:42;;;;;;;4.45;2.47;;;;;;;13.07;70.88;100418.13;3621871;39;20047;-62
2022/11/15 09:49:12;;;;;;;3.85;2.50;;;;;;;13.32;70.36;100433.22;3614674;39;20042;-62
2022/11/15 09:51:49;;;;;;;2.80;2.13;;;;;;;13.43;70.04;100441.34;3619397;39;20056;-62
2022/11/15 09:54:33;;;;;;;3.42;1.67;;;;;;;13.51;68.20;100429.91;3618846;39;20413;-63
2022/11/15 09:57:36;;;;;;;2.08;1.63;;;;;;;13.62;66.05;100429.94;3622974;39;20062;-62
2022/11/15 10:00:13;;;;;;;5.32;1.77;;;;;;;13.78;65.34;100426.84;3621237;39;20120;-62
2022/11/15 10:03:06;;;;;;;2.88;1.60;;;;;;;13.86;64.53;100432.47;3618109;39;20061;-62
2022/11/15 10:05:39;;;;;;;1.95;1.33;;;;;;;14.01;63.37;100436.59;3620192;39;20057;-62
2022/11/15 10:08:41;;;;;;;3.72;1.50;;;;;;;14.16;62.50;100432.63;3620506;39;20059;-62
2022/11/15 10:11:19;;;;;;;3.60;1.50;;;;;;;14.48;61.85;100430.94;3622978;39;20051;-62
2022/11/15 10:13:49;;;;;;;2.40;1.48;;;;;;;14.67;61.71;100425.69;3619900;39;20053;-61
2022/11/15 10:16:28;;;;;;;1.38;1.00;;;;;;;14.89;61.51;100426.56;3619119;39;20123;-62
2022/11/15 10:19:14;;;;;;;3.10;1.42;;;;;;;15.15;60.97;100421.59;3619999;39;20097;-62
2022/11/15 10:22:17;;;;;;;2.67;1.35;;;;;;;15.15;58.84;100424.28;3618263;39;20424;-61
2022/11/15 10:24:45;;;;;;;4.38;0.98;;;;;;;15.07;59.16;100431.25;3611929;39;20054;-61
2022/11/15 10:27:15;;;;;;;4.07;1.23;;;;;;;14.83;58.94;100417.13;3621420;39;20051;-61
2022/11/15 10:29:47;;;;;;;4.22;1.17;;;;;;;14.65;57.69;100416.00;3621153;39;20052;-61
2022/11/15 10:32:18;;;;;;;4.50;1.23;;;;;;;14.56;58.14;100413.09;3618071;39;20292;-61
2022/11/15 10:34:45;;;;;;;2.95;1.23;;;;;;;14.31;58.03;100367.47;3620323;39;20282;-62
2022/11/15 10:37:11;;;;;;;3.40;1.30;;;;;;;14.52;58.52;100398.09;3621717;39;20146;-62
2022/11/15 10:39:36;;;;;;;5.05;1.95;;;;;;;14.45;57.94;100391.47;3621566;39;20389;-62
2022/11/15 10:42:29;;;;;;;3.95;1.40;;;;;;;14.44;57.46;100383.50;3621565;39;20054;-62
2022/11/15 10:44:55;;;;;;;4.53;1.15;;;;;;;14.56;57.55;100386.06;3618745;39;20161;-62
2022/11/15 10:47:30;;;;;;;4.85;1.52;;;;;;;14.75;56.79;100388.03;3616551;39;20067;-62
2022/11/15 10:50:25;;;;;;;3.38;1.50;;;;;;;14.93;55.92;100388.25;3618774;39;20401;-61
2022/11/15 10:52:52;;;;;;;4.40;1.90;;;;;;;15.15;56.40;100372.84;3614759;39;20065;-62
2022/11/15 10:55:17;;;;;;;3.15;1.58;;;;;;;15.34;56.54;100378.34;3605919;39;20047;-62
2022/11/15 10:57:57;;;;;;;3.08;1.50;;;;;;;15.37;55.64;100367.25;3619402;39;20062;-62
2022/11/15 11:00:39;;;;;;;4.40;1.60;;;;;;;15.71;54.84;100372.38;3618836;39;20050;-62
2022/11/15 11:03:33;;;;;;;3.80;1.38;;;;;;;15.81;54.22;100358.84;3620288;39;20046;-62
2022/11/15 11:06:12;;;;;;;3.03;1.05;;;;;;;16.07;53.88;100370.00;3619049;39;20047;-62
2022/11/15 11:08:39;;;;;;;4.97;1.77;;;;;;;16.28;53.73;100348.19;3619982;39;20047;-62
2022/11/15 11:11:07;;;;;;;4.25;1.63;;;;;;;16.48;53.08;100355.28;3619932;39;20046;-62
2022/11/15 11:13:39;;;;;;;4.10;1.33;;;;;;;16.64;52.18;100343.84;3619870;39;20046;-61
2022/11/15 11:16:14;;;;;;;3.50;1.10;;;;;;;16.60;52.64;100343.28;3619505;39;20444;-61
2022/11/15 11:19:30;;;;;;;4.30;2.05;;;;;;;16.58;52.64;100336.28;3619152;39;20037;-61
2022/11/15 11:22:17;;;;;;;2.55;1.40;;;;;;;16.35;52.65;100317.59;3616742;39;20393;-61
2022/11/15 11:25:03;;;;;;;2.45;1.00;;;;;;;16.31;52.65;100321.63;3621204;39;20038;-60
2022/11/15 11:28:03;;;;;;;6.30;1.30;;;;;;;16.23;52.82;100324.19;3618208;39;20055;-62
2022/11/15 11:31:19;;;;;;;5.57;1.70;;;;;;;16.15;51.72;100305.09;3602862;39;20089;-62
2022/11/15 11:34:32;;;;;;;4.53;1.40;;;;;;;16.25;52.42;100300.50;3606413;39;20066;-62
2022/11/15 11:37:14;;;;;;;4.55;1.52;;;;;;;16.49;51.70;100289.16;3619642;39;20051;-62
2022/11/15 11:40:03;;;;;;;2.92;1.27;;;;;;;16.79;51.00;100296.28;3618631;39;20049;-62
2022/11/15 11:43:21;;;;;;;4.13;1.10;;;;;;;16.84;50.25;100288.56;3616525;39;20138;-61
2022/11/15 11:46:26;;;;;;;2.80;1.23;;;;;;;17.06;51.30;100281.00;3580928;39;20087;-62
2022/11/15 11:49:10;;;;;;;5.32;1.38;;;;;;;17.29;49.92;100274.19;3617107;39;20051;-62
2022/11/15 11:51:49;;;;;;;;;;;;;;;17.39;50.02;100280.41;3617229;39;20378;-63